sensor_id;sensor_type;location;lat;lon;timestamp;P1;durP1;ratioP1;P2;durP2;ratioP2
20230;SDS011;10274;49.022;9.338;2023-04-25T00:01:02;2.30;;;1.90;;
20230;SDS011;10274;49.022;9.338;2023-04-25T00:03:29;2.07;;;1.90;;
20230;SDS011;10274;49.022;9.338;2023-04-25T00:05:56;1.50;;;1.40;;
20230;SDS011;10274;49.022;9.338;2023-04-25T00:08:26;2.13;;;1.80;;
20230;SDS011;10274;49.022;9.338;2023-04-25T00:10:54;3.07;;;1.90;;
20230;SDS011;10274;49.022;9.338;2023-04-25T00:13:22;2.77;;;2.30;;
20230;SDS011;10274;49.022;9.338;2023-04-25T00:15:50;2.80;;;2.13;;
20230;SDS011;10274;49.022;9.338;2023-04-25T00:18:18;1.90;;;1.70;;
20230;SDS011;10274;49.022;9.338;2023-04-25T00:20:45;2.03;;;1.83;;
20230;SDS011;10274;49.022;9.338;2023-04-25T00:23:12;2.20;;;1.90;;
20230;SDS011;10274;49.022;9.338;2023-04-25T00:25:42;1.83;;;1.60;;
20230;SDS011;10274;49.022;9.338;2023-04-25T00:28:10;2.47;;;2.07;;
20230;SDS011;10274;49.022;9.338;2023-04-25T00:30:37;2.40;;;2.03;;
20230;SDS011;10274;49.022;9.338;2023-04-25T00:33:04;2.63;;;2.23;;
20230;SDS011;10274;49.022;9.338;2023-04-25T00:35:30;1.83;;;1.73;;
20230;SDS011;10274;49.022;9.338;2023-04-25T00:37:57;2.73;;;2.07;;
20230;SDS011;10274;49.022;9.338;2023-04-25T00:40:24;2.00;;;1.80;;
20230;SDS011;10274;49.022;9.338;2023-04-25T00:42:51;2.17;;;1.97;;
20230;SDS011;10274;49.022;9.338;2023-04-25T00:45:20;2.47;;;2.00;;
20230;SDS011;10274;49.022;9.338;2023-04-25T00:47:46;1.50;;;1.40;;
20230;SDS011;10274;49.022;9.338;2023-04-25T00:50:13;2.27;;;1.90;;
20230;SDS011;10274;49.022;9.338;2023-04-25T00:52:40;2.30;;;2.10;;
20230;SDS011;10274;49.022;9.338;2023-04-25T00:55:10;2.27;;;1.73;;
20230;SDS011;10274;49.022;9.338;2023-04-25T00:57:37;1.73;;;1.63;;
20230;SDS011;10274;49.022;9.338;2023-04-25T01:00:05;1.60;;;1.50;;
20230;SDS011;10274;49.022;9.338;2023-04-25T01:02:35;1.50;;;1.40;;
20230;SDS011;10274;49.022;9.338;2023-04-25T01:05:03;1.97;;;1.50;;
20230;SDS011;10274;49.022;9.338;2023-04-25T01:07:30;2.27;;;1.50;;
20230;SDS011;10274;49.022;9.338;2023-04-25T01:09:57;2.30;;;2.03;;
20230;SDS011;10274;49.022;9.338;2023-04-25T01:12:24;2.00;;;1.80;;
20230;SDS011;10274;49.022;9.338;2023-04-25T01:14:51;2.33;;;2.07;;
20230;SDS011;10274;49.022;9.338;2023-04-25T01:17:17;2.33;;;1.90;;
20230;SDS011;10274;49.022;9.338;2023-04-25T01:19:46;2.17;;;1.90;;
20230;SDS011;10274;49.022;9.338;2023-04-25T01:22:15;2.50;;;2.10;;
20230;SDS011;10274;49.022;9.338;2023-04-25T01:24:42;2.70;;;2.27;;
20230;SDS011;10274;49.022;9.338;2023-04-25T01:27:09;2.53;;;1.90;;
20230;SDS011;10274;49.022;9.338;2023-04-25T01:29:36;2.23;;;2.00;;
20230;SDS011;10274;49.022;9.338;2023-04-25T01:32:03;2.47;;;2.20;;
20230;SDS011;10274;49.022;9.338;2023-04-25T01:34:31;2.37;;;2.17;;
20230;SDS011;10274;49.022;9.338;2023-04-25T01:36:58;2.30;;;2.10;;
20230;SDS011;10274;49.022;9.338;2023-04-25T01:39:27;2.83;;;2.37;;
20230;SDS011;10274;49.022;9.338;2023-04-25T01:41:54;2.57;;;2.20;;
20230;SDS011;10274;49.022;9.338;2023-04-25T01:44:21;2.20;;;2.00;;
20230;SDS011;10274;49.022;9.338;2023-04-25T01:46:48;3.03;;;2.37;;
20230;SDS011;10274;49.022;9.338;2023-04-25T01:49:15;3.50;;;2.80;;
20230;SDS011;10274;49.022;9.338;2023-04-25T01:51:41;2.67;;;2.40;;
20230;SDS011;10274;49.022;9.338;2023-04-25T01:54:08;3.60;;;3.10;;
20230;SDS011;10274;49.022;9.338;2023-04-25T01:56:38;3.00;;;2.40;;
20230;SDS011;10274;49.022;9.338;2023-04-25T01:59:05;3.47;;;2.30;;
20230;SDS011;10274;49.022;9.338;2023-04-25T02:01:32;2.63;;;2.43;;
20230;SDS011;10274;49.022;9.338;2023-04-25T02:03:59;2.20;;;2.00;;
20230;SDS011;10274;49.022;9.338;2023-04-25T02:06:26;3.40;;;2.43;;
20230;SDS011;10274;49.022;9.338;2023-04-25T02:08:52;4.93;;;2.83;;
20230;SDS011;10274;49.022;9.338;2023-04-25T02:11:19;2.83;;;2.27;;
20230;SDS011;10274;49.022;9.338;2023-04-25T02:13:47;2.53;;;2.17;;
20230;SDS011;10274;49.022;9.338;2023-04-25T02:16:14;3.37;;;2.40;;
20230;SDS011;10274;49.022;9.338;2023-04-25T02:18:40;3.00;;;2.70;;
20230;SDS011;10274;49.022;9.338;2023-04-25T02:21:07;3.07;;;2.63;;
20230;SDS011;10274;49.022;9.338;2023-04-25T02:23:34;3.10;;;2.40;;
20230;SDS011;10274;49.022;9.338;2023-04-25T02:26:00;2.80;;;2.50;;
20230;SDS011;10274;49.022;9.338;2023-04-25T02:28:27;2.97;;;2.60;;
20230;SDS011;10274;49.022;9.338;2023-04-25T02:30:55;2.43;;;2.23;;
20230;SDS011;10274;49.022;9.338;2023-04-25T02:33:22;2.97;;;2.20;;
20230;SDS011;10274;49.022;9.338;2023-04-25T02:35:48;2.33;;;2.13;;
20230;SDS011;10274;49.022;9.338;2023-04-25T02:38:15;2.57;;;2.17;;
20230;SDS011;10274;49.022;9.338;2023-04-25T02:40:42;2.60;;;2.40;;
20230;SDS011;10274;49.022;9.338;2023-04-25T02:43:08;3.00;;;2.50;;
20230;SDS011;10274;49.022;9.338;2023-04-25T02:45:35;3.80;;;2.30;;
20230;SDS011;10274;49.022;9.338;2023-04-25T02:48:04;2.80;;;2.17;;
20230;SDS011;10274;49.022;9.338;2023-04-25T02:50:31;2.30;;;2.10;;
20230;SDS011;10274;49.022;9.338;2023-04-25T02:52:57;3.40;;;2.23;;
20230;SDS011;10274;49.022;9.338;2023-04-25T02:55:24;3.03;;;2.70;;
20230;SDS011;10274;49.022;9.338;2023-04-25T02:57:51;2.90;;;2.60;;
20230;SDS011;10274;49.022;9.338;2023-04-25T03:00:20;4.00;;;2.37;;
20230;SDS011;10274;49.022;9.338;2023-04-25T03:02:46;2.70;;;2.00;;
20230;SDS011;10274;49.022;9.338;2023-04-25T03:05:14;2.40;;;2.20;;
20230;SDS011;10274;49.022;9.338;2023-04-25T03:07:41;2.70;;;2.10;;
20230;SDS011;10274;49.022;9.338;2023-04-25T03:10:09;2.50;;;2.30;;
20230;SDS011;10274;49.022;9.338;2023-04-25T03:12:36;2.40;;;2.20;;
20230;SDS011;10274;49.022;9.338;2023-04-25T03:15:03;2.37;;;2.17;;
20230;SDS011;10274;49.022;9.338;2023-04-25T03:17:30;3.03;;;1.80;;
20230;SDS011;10274;49.022;9.338;2023-04-25T03:19:57;3.33;;;2.37;;
20230;SDS011;10274;49.022;9.338;2023-04-25T03:22:25;3.13;;;2.30;;
20230;SDS011;10274;49.022;9.338;2023-04-25T03:24:52;2.20;;;2.00;;
20230;SDS011;10274;49.022;9.338;2023-04-25T03:27:18;2.50;;;2.23;;
20230;SDS011;10274;49.022;9.338;2023-04-25T03:29:45;2.50;;;2.30;;
20230;SDS011;10274;49.022;9.338;2023-04-25T03:32:12;2.27;;;2.00;;
20230;SDS011;10274;49.022;9.338;2023-04-25T03:34:38;2.23;;;2.03;;
20230;SDS011;10274;49.022;9.338;2023-04-25T03:37:05;2.70;;;2.23;;
20230;SDS011;10274;49.022;9.338;2023-04-25T03:39:33;2.40;;;2.13;;
20230;SDS011;10274;49.022;9.338;2023-04-25T03:42:00;2.37;;;2.10;;
20230;SDS011;10274;49.022;9.338;2023-04-25T03:44:27;2.80;;;2.23;;
20230;SDS011;10274;49.022;9.338;2023-04-25T03:46:54;2.17;;;1.97;;
20230;SDS011;10274;49.022;9.338;2023-04-25T03:49:21;2.07;;;1.87;;
20230;SDS011;10274;49.022;9.338;2023-04-25T03:51:47;2.77;;;2.47;;
20230;SDS011;10274;49.022;9.338;2023-04-25T03:54:14;4.07;;;2.33;;
20230;SDS011;10274;49.022;9.338;2023-04-25T03:56:42;2.33;;;2.10;;
20230;SDS011;10274;49.022;9.338;2023-04-25T03:59:09;3.33;;;2.60;;
20230;SDS011;10274;49.022;9.338;2023-04-25T04:01:35;3.13;;;2.20;;
20230;SDS011;10274;49.022;9.338;2023-04-25T04:04:02;2.47;;;2.20;;
20230;SDS011;10274;49.022;9.338;2023-04-25T04:06:29;2.20;;;2.00;;
20230;SDS011;10274;49.022;9.338;2023-04-25T04:08:56;3.13;;;2.40;;
20230;SDS011;10274;49.022;9.338;2023-04-25T04:11:22;2.37;;;2.13;;
20230;SDS011;10274;49.022;9.338;2023-04-25T04:13:50;3.57;;;2.10;;
20230;SDS011;10274;49.022;9.338;2023-04-25T04:16:17;3.43;;;2.60;;
20230;SDS011;10274;49.022;9.338;2023-04-25T04:18:44;2.87;;;2.57;;
20230;SDS011;10274;49.022;9.338;2023-04-25T04:21:11;2.30;;;2.10;;
20230;SDS011;10274;49.022;9.338;2023-04-25T04:23:38;3.13;;;2.10;;
20230;SDS011;10274;49.022;9.338;2023-04-25T04:26:05;2.70;;;2.30;;
20230;SDS011;10274;49.022;9.338;2023-04-25T04:28:32;3.47;;;2.10;;
20230;SDS011;10274;49.022;9.338;2023-04-25T04:31:00;2.27;;;2.07;;
20230;SDS011;10274;49.022;9.338;2023-04-25T04:33:27;2.97;;;2.37;;
20230;SDS011;10274;49.022;9.338;2023-04-25T04:35:54;2.93;;;2.63;;
20230;SDS011;10274;49.022;9.338;2023-04-25T04:38:21;2.57;;;2.37;;
20230;SDS011;10274;49.022;9.338;2023-04-25T04:40:48;2.60;;;2.20;;
20230;SDS011;10274;49.022;9.338;2023-04-25T04:43:15;3.00;;;2.70;;
20230;SDS011;10274;49.022;9.338;2023-04-25T04:45:43;3.67;;;2.50;;
20230;SDS011;10274;49.022;9.338;2023-04-25T04:48:11;2.60;;;2.23;;
20230;SDS011;10274;49.022;9.338;2023-04-25T04:50:39;2.83;;;2.53;;
20230;SDS011;10274;49.022;9.338;2023-04-25T04:53:06;3.00;;;2.57;;
20230;SDS011;10274;49.022;9.338;2023-04-25T04:55:33;2.63;;;2.40;;
20230;SDS011;10274;49.022;9.338;2023-04-25T04:57:59;4.73;;;2.90;;
20230;SDS011;10274;49.022;9.338;2023-04-25T05:00:26;5.33;;;3.00;;
20230;SDS011;10274;49.022;9.338;2023-04-25T05:02:54;3.63;;;2.67;;
20230;SDS011;10274;49.022;9.338;2023-04-25T05:05:22;2.60;;;2.40;;
20230;SDS011;10274;49.022;9.338;2023-04-25T05:07:49;4.27;;;2.60;;
20230;SDS011;10274;49.022;9.338;2023-04-25T05:10:16;3.20;;;2.40;;
20230;SDS011;10274;49.022;9.338;2023-04-25T05:12:43;3.67;;;2.90;;
20230;SDS011;10274;49.022;9.338;2023-04-25T05:15:10;3.07;;;1.97;;
20230;SDS011;10274;49.022;9.338;2023-04-25T05:17:37;2.77;;;2.43;;
20230;SDS011;10274;49.022;9.338;2023-04-25T05:20:04;3.10;;;2.77;;
20230;SDS011;10274;49.022;9.338;2023-04-25T05:22:35;2.27;;;2.00;;
20230;SDS011;10274;49.022;9.338;2023-04-25T05:25:02;3.00;;;2.43;;
20230;SDS011;10274;49.022;9.338;2023-04-25T05:27:29;2.67;;;2.40;;
20230;SDS011;10274;49.022;9.338;2023-04-25T05:29:56;3.07;;;2.43;;
20230;SDS011;10274;49.022;9.338;2023-04-25T05:32:23;2.77;;;2.53;;
20230;SDS011;10274;49.022;9.338;2023-04-25T05:34:49;3.80;;;2.43;;
20230;SDS011;10274;49.022;9.338;2023-04-25T05:37:16;3.30;;;2.73;;
20230;SDS011;10274;49.022;9.338;2023-04-25T05:39:44;2.93;;;2.33;;
20230;SDS011;10274;49.022;9.338;2023-04-25T05:42:12;3.10;;;2.50;;
20230;SDS011;10274;49.022;9.338;2023-04-25T05:44:39;3.13;;;2.63;;
20230;SDS011;10274;49.022;9.338;2023-04-25T05:47:05;4.13;;;2.60;;
20230;SDS011;10274;49.022;9.338;2023-04-25T05:49:32;2.90;;;2.47;;
20230;SDS011;10274;49.022;9.338;2023-04-25T05:51:59;3.27;;;2.57;;
20230;SDS011;10274;49.022;9.338;2023-04-25T05:54:26;3.07;;;1.97;;
20230;SDS011;10274;49.022;9.338;2023-04-25T05:56:55;2.63;;;1.93;;
20230;SDS011;10274;49.022;9.338;2023-04-25T05:59:22;2.83;;;2.53;;
20230;SDS011;10274;49.022;9.338;2023-04-25T06:01:49;3.17;;;2.27;;
20230;SDS011;10274;49.022;9.338;2023-04-25T06:04:16;2.57;;;2.13;;
20230;SDS011;10274;49.022;9.338;2023-04-25T06:06:43;3.30;;;2.70;;
20230;SDS011;10274;49.022;9.338;2023-04-25T06:09:10;3.50;;;2.80;;
20230;SDS011;10274;49.022;9.338;2023-04-25T06:11:36;3.87;;;2.53;;
20230;SDS011;10274;49.022;9.338;2023-04-25T06:14:05;3.60;;;2.50;;
20230;SDS011;10274;49.022;9.338;2023-04-25T06:16:32;3.30;;;2.80;;
20230;SDS011;10274;49.022;9.338;2023-04-25T06:18:59;3.43;;;2.50;;
20230;SDS011;10274;49.022;9.338;2023-04-25T06:21:25;2.60;;;2.10;;
20230;SDS011;10274;49.022;9.338;2023-04-25T06:23:52;3.03;;;2.27;;
20230;SDS011;10274;49.022;9.338;2023-04-25T06:26:19;2.97;;;2.37;;
20230;SDS011;10274;49.022;9.338;2023-04-25T06:28:45;2.57;;;2.03;;
20230;SDS011;10274;49.022;9.338;2023-04-25T06:31:13;2.53;;;2.17;;
20230;SDS011;10274;49.022;9.338;2023-04-25T06:33:40;2.67;;;2.33;;
20230;SDS011;10274;49.022;9.338;2023-04-25T06:36:07;3.23;;;2.00;;
20230;SDS011;10274;49.022;9.338;2023-04-25T06:38:33;2.30;;;2.10;;
20230;SDS011;10274;49.022;9.338;2023-04-25T06:41:00;2.03;;;1.80;;
20230;SDS011;10274;49.022;9.338;2023-04-25T06:43:27;2.60;;;2.40;;
20230;SDS011;10274;49.022;9.338;2023-04-25T06:45:57;2.53;;;2.27;;
20230;SDS011;10274;49.022;9.338;2023-04-25T06:48:26;2.80;;;2.27;;
20230;SDS011;10274;49.022;9.338;2023-04-25T06:50:52;3.00;;;2.33;;
20230;SDS011;10274;49.022;9.338;2023-04-25T06:53:19;2.20;;;2.00;;
20230;SDS011;10274;49.022;9.338;2023-04-25T06:55:46;2.83;;;2.30;;
20230;SDS011;10274;49.022;9.338;2023-04-25T06:58:13;2.40;;;2.20;;
20230;SDS011;10274;49.022;9.338;2023-04-25T07:00:39;2.93;;;2.37;;
20230;SDS011;10274;49.022;9.338;2023-04-25T07:03:06;2.67;;;2.40;;
20230;SDS011;10274;49.022;9.338;2023-04-25T07:05:34;2.50;;;2.30;;
20230;SDS011;10274;49.022;9.338;2023-04-25T07:08:01;2.13;;;1.93;;
20230;SDS011;10274;49.022;9.338;2023-04-25T07:10:28;2.57;;;1.97;;
20230;SDS011;10274;49.022;9.338;2023-04-25T07:12:55;2.70;;;2.30;;
20230;SDS011;10274;49.022;9.338;2023-04-25T07:15:22;2.60;;;2.17;;
20230;SDS011;10274;49.022;9.338;2023-04-25T07:17:48;2.60;;;2.27;;
20230;SDS011;10274;49.022;9.338;2023-04-25T07:20:15;2.63;;;1.90;;
20230;SDS011;10274;49.022;9.338;2023-04-25T07:22:43;2.77;;;2.03;;
20230;SDS011;10274;49.022;9.338;2023-04-25T07:25:10;2.73;;;2.10;;
20230;SDS011;10274;49.022;9.338;2023-04-25T07:27:36;2.87;;;2.07;;
20230;SDS011;10274;49.022;9.338;2023-04-25T07:30:04;3.23;;;2.70;;
20230;SDS011;10274;49.022;9.338;2023-04-25T07:32:32;4.83;;;2.70;;
20230;SDS011;10274;49.022;9.338;2023-04-25T07:34:58;3.07;;;2.50;;
20230;SDS011;10274;49.022;9.338;2023-04-25T07:37:26;3.43;;;3.10;;
20230;SDS011;10274;49.022;9.338;2023-04-25T07:39:54;4.37;;;2.97;;
20230;SDS011;10274;49.022;9.338;2023-04-25T07:42:21;4.10;;;3.47;;
20230;SDS011;10274;49.022;9.338;2023-04-25T07:44:48;3.87;;;3.10;;
20230;SDS011;10274;49.022;9.338;2023-04-25T07:47:16;3.50;;;3.20;;
20230;SDS011;10274;49.022;9.338;2023-04-25T07:49:44;3.87;;;2.73;;
20230;SDS011;10274;49.022;9.338;2023-04-25T07:52:12;4.73;;;2.80;;
20230;SDS011;10274;49.022;9.338;2023-04-25T07:54:40;4.97;;;2.60;;
20230;SDS011;10274;49.022;9.338;2023-04-25T07:57:08;4.37;;;2.93;;
20230;SDS011;10274;49.022;9.338;2023-04-25T07:59:35;3.80;;;2.90;;
20230;SDS011;10274;49.022;9.338;2023-04-25T08:02:02;2.97;;;2.67;;
20230;SDS011;10274;49.022;9.338;2023-04-25T08:04:28;2.63;;;2.43;;
20230;SDS011;10274;49.022;9.338;2023-04-25T08:06:55;2.63;;;2.43;;
20230;SDS011;10274;49.022;9.338;2023-04-25T08:09:22;3.37;;;2.73;;
20230;SDS011;10274;49.022;9.338;2023-04-25T08:11:49;3.60;;;2.83;;
20230;SDS011;10274;49.022;9.338;2023-04-25T08:14:17;3.93;;;2.60;;
20230;SDS011;10274;49.022;9.338;2023-04-25T08:16:44;2.77;;;2.40;;
20230;SDS011;10274;49.022;9.338;2023-04-25T08:19:11;3.00;;;2.57;;
20230;SDS011;10274;49.022;9.338;2023-04-25T08:21:38;3.27;;;2.40;;
20230;SDS011;10274;49.022;9.338;2023-04-25T08:24:05;4.37;;;2.37;;
20230;SDS011;10274;49.022;9.338;2023-04-25T08:26:31;4.17;;;2.70;;
20230;SDS011;10274;49.022;9.338;2023-04-25T08:28:59;4.37;;;2.80;;
20230;SDS011;10274;49.022;9.338;2023-04-25T08:31:27;3.63;;;2.87;;
20230;SDS011;10274;49.022;9.338;2023-04-25T08:33:54;4.63;;;2.53;;
20230;SDS011;10274;49.022;9.338;2023-04-25T08:36:20;2.63;;;2.43;;
20230;SDS011;10274;49.022;9.338;2023-04-25T08:38:47;3.60;;;2.63;;
20230;SDS011;10274;49.022;9.338;2023-04-25T08:41:14;4.20;;;2.63;;
20230;SDS011;10274;49.022;9.338;2023-04-25T08:43:42;3.53;;;2.43;;
20230;SDS011;10274;49.022;9.338;2023-04-25T08:46:10;4.80;;;2.47;;
20230;SDS011;10274;49.022;9.338;2023-04-25T08:48:40;2.73;;;2.47;;
20230;SDS011;10274;49.022;9.338;2023-04-25T08:51:08;2.83;;;2.40;;
20230;SDS011;10274;49.022;9.338;2023-04-25T08:53:36;2.90;;;2.30;;
20230;SDS011;10274;49.022;9.338;2023-04-25T08:56:07;4.53;;;2.87;;
20230;SDS011;10274;49.022;9.338;2023-04-25T08:58:38;3.07;;;2.40;;
20230;SDS011;10274;49.022;9.338;2023-04-25T09:01:05;3.83;;;2.70;;
20230;SDS011;10274;49.022;9.338;2023-04-25T09:03:31;3.60;;;2.63;;
20230;SDS011;10274;49.022;9.338;2023-04-25T09:06:00;4.00;;;2.83;;
20230;SDS011;10274;49.022;9.338;2023-04-25T09:08:27;3.93;;;3.07;;
20230;SDS011;10274;49.022;9.338;2023-04-25T09:10:54;3.53;;;2.60;;
20230;SDS011;10274;49.022;9.338;2023-04-25T09:13:24;3.87;;;3.00;;
20230;SDS011;10274;49.022;9.338;2023-04-25T09:15:52;2.93;;;2.63;;
20230;SDS011;10274;49.022;9.338;2023-04-25T09:18:23;2.87;;;2.63;;
20230;SDS011;10274;49.022;9.338;2023-04-25T09:20:54;3.03;;;2.50;;
20230;SDS011;10274;49.022;9.338;2023-04-25T09:23:22;3.73;;;2.90;;
20230;SDS011;10274;49.022;9.338;2023-04-25T09:25:50;3.23;;;2.90;;
20230;SDS011;10274;49.022;9.338;2023-04-25T09:28:22;3.60;;;3.10;;
20230;SDS011;10274;49.022;9.338;2023-04-25T09:30:53;4.43;;;3.20;;
20230;SDS011;10274;49.022;9.338;2023-04-25T09:33:26;4.17;;;3.37;;
20230;SDS011;10274;49.022;9.338;2023-04-25T09:35:54;3.83;;;3.43;;
20230;SDS011;10274;49.022;9.338;2023-04-25T09:38:29;5.03;;;3.70;;
20230;SDS011;10274;49.022;9.338;2023-04-25T09:40:57;5.90;;;3.63;;
20230;SDS011;10274;49.022;9.338;2023-04-25T09:43:25;3.77;;;3.07;;
20230;SDS011;10274;49.022;9.338;2023-04-25T09:45:53;5.30;;;3.60;;
20230;SDS011;10274;49.022;9.338;2023-04-25T09:48:24;4.40;;;3.73;;
20230;SDS011;10274;49.022;9.338;2023-04-25T09:51:03;4.77;;;3.40;;
20230;SDS011;10274;49.022;9.338;2023-04-25T09:53:32;3.53;;;3.20;;
20230;SDS011;10274;49.022;9.338;2023-04-25T09:56:00;3.60;;;2.90;;
20230;SDS011;10274;49.022;9.338;2023-04-25T09:58:30;3.63;;;1.97;;
20230;SDS011;10274;49.022;9.338;2023-04-25T10:00:59;2.13;;;1.60;;
20230;SDS011;10274;49.022;9.338;2023-04-25T10:03:26;1.97;;;1.77;;
20230;SDS011;10274;49.022;9.338;2023-04-25T10:05:56;2.13;;;1.93;;
20230;SDS011;10274;49.022;9.338;2023-04-25T10:08:25;2.30;;;2.03;;
20230;SDS011;10274;49.022;9.338;2023-04-25T10:10:56;3.03;;;2.00;;
20230;SDS011;10274;49.022;9.338;2023-04-25T10:13:24;2.53;;;2.10;;
20230;SDS011;10274;49.022;9.338;2023-04-25T10:15:56;2.77;;;2.27;;
20230;SDS011;10274;49.022;9.338;2023-04-25T10:18:24;2.50;;;2.10;;
20230;SDS011;10274;49.022;9.338;2023-04-25T10:20:51;2.33;;;2.00;;
20230;SDS011;10274;49.022;9.338;2023-04-25T10:23:19;2.97;;;2.40;;
20230;SDS011;10274;49.022;9.338;2023-04-25T10:25:46;4.10;;;2.27;;
20230;SDS011;10274;49.022;9.338;2023-04-25T10:28:15;2.13;;;1.93;;
20230;SDS011;10274;49.022;9.338;2023-04-25T10:30:56;2.80;;;2.40;;
20230;SDS011;10274;49.022;9.338;2023-04-25T10:33:29;3.00;;;2.60;;
20230;SDS011;10274;49.022;9.338;2023-04-25T10:35:58;2.03;;;1.80;;
20230;SDS011;10274;49.022;9.338;2023-04-25T10:38:34;2.93;;;2.50;;
20230;SDS011;10274;49.022;9.338;2023-04-25T10:41:05;2.90;;;2.50;;
20230;SDS011;10274;49.022;9.338;2023-04-25T10:43:36;4.03;;;2.97;;
20230;SDS011;10274;49.022;9.338;2023-04-25T10:46:12;3.17;;;2.77;;
20230;SDS011;10274;49.022;9.338;2023-04-25T10:48:44;3.13;;;2.83;;
20230;SDS011;10274;49.022;9.338;2023-04-25T10:51:16;3.27;;;2.73;;
20230;SDS011;10274;49.022;9.338;2023-04-25T10:53:44;3.63;;;3.20;;
20230;SDS011;10274;49.022;9.338;2023-04-25T10:56:11;3.80;;;3.00;;
20230;SDS011;10274;49.022;9.338;2023-04-25T10:58:44;4.97;;;2.80;;
20230;SDS011;10274;49.022;9.338;2023-04-25T11:01:12;3.93;;;3.53;;
20230;SDS011;10274;49.022;9.338;2023-04-25T11:03:42;4.37;;;3.97;;
20230;SDS011;10274;49.022;9.338;2023-04-25T11:06:12;6.07;;;3.33;;
20230;SDS011;10274;49.022;9.338;2023-04-25T11:08:48;3.97;;;3.57;;
20230;SDS011;10274;49.022;9.338;2023-04-25T11:11:16;4.43;;;3.47;;
20230;SDS011;10274;49.022;9.338;2023-04-25T11:13:46;5.33;;;3.73;;
20230;SDS011;10274;49.022;9.338;2023-04-25T11:16:14;4.40;;;4.00;;
20230;SDS011;10274;49.022;9.338;2023-04-25T11:18:41;4.03;;;3.60;;
20230;SDS011;10274;49.022;9.338;2023-04-25T11:21:08;5.60;;;4.30;;
20230;SDS011;10274;49.022;9.338;2023-04-25T11:23:35;4.23;;;3.83;;
20230;SDS011;10274;49.022;9.338;2023-04-25T11:26:02;4.80;;;4.13;;
20230;SDS011;10274;49.022;9.338;2023-04-25T11:28:29;6.00;;;3.97;;
20230;SDS011;10274;49.022;9.338;2023-04-25T11:30:57;5.10;;;4.33;;
20230;SDS011;10274;49.022;9.338;2023-04-25T11:33:24;5.30;;;4.00;;
20230;SDS011;10274;49.022;9.338;2023-04-25T11:35:52;4.33;;;3.90;;
20230;SDS011;10274;49.022;9.338;2023-04-25T11:38:20;5.47;;;3.70;;
20230;SDS011;10274;49.022;9.338;2023-04-25T11:40:49;6.67;;;3.73;;
20230;SDS011;10274;49.022;9.338;2023-04-25T11:43:16;4.20;;;3.00;;
20230;SDS011;10274;49.022;9.338;2023-04-25T11:45:45;2.90;;;2.60;;
20230;SDS011;10274;49.022;9.338;2023-04-25T11:48:14;3.20;;;2.90;;
20230;SDS011;10274;49.022;9.338;2023-04-25T11:50:41;3.47;;;2.80;;
20230;SDS011;10274;49.022;9.338;2023-04-25T11:53:07;2.67;;;2.47;;
20230;SDS011;10274;49.022;9.338;2023-04-25T11:55:35;2.70;;;2.50;;
20230;SDS011;10274;49.022;9.338;2023-04-25T11:58:03;4.03;;;3.47;;
20230;SDS011;10274;49.022;9.338;2023-04-25T12:00:30;4.03;;;2.97;;
20230;SDS011;10274;49.022;9.338;2023-04-25T12:02:58;2.57;;;2.27;;
20230;SDS011;10274;49.022;9.338;2023-04-25T12:05:27;3.27;;;2.70;;
20230;SDS011;10274;49.022;9.338;2023-04-25T12:07:55;2.93;;;2.50;;
20230;SDS011;10274;49.022;9.338;2023-04-25T12:10:23;3.43;;;2.60;;
20230;SDS011;10274;49.022;9.338;2023-04-25T12:12:51;2.90;;;2.60;;
20230;SDS011;10274;49.022;9.338;2023-04-25T12:15:22;3.73;;;3.23;;
20230;SDS011;10274;49.022;9.338;2023-04-25T12:17:52;6.33;;;3.60;;
20230;SDS011;10274;49.022;9.338;2023-04-25T12:20:20;4.57;;;3.70;;
20230;SDS011;10274;49.022;9.338;2023-04-25T12:22:52;4.07;;;3.67;;
20230;SDS011;10274;49.022;9.338;2023-04-25T12:25:35;4.00;;;3.60;;
20230;SDS011;10274;49.022;9.338;2023-04-25T12:28:10;4.40;;;3.10;;
20230;SDS011;10274;49.022;9.338;2023-04-25T12:30:51;4.10;;;3.53;;
20230;SDS011;10274;49.022;9.338;2023-04-25T12:33:19;5.57;;;4.07;;
20230;SDS011;10274;49.022;9.338;2023-04-25T12:35:46;3.83;;;3.30;;
20230;SDS011;10274;49.022;9.338;2023-04-25T12:38:21;3.63;;;3.27;;
20230;SDS011;10274;49.022;9.338;2023-04-25T12:40:48;5.10;;;3.80;;
20230;SDS011;10274;49.022;9.338;2023-04-25T12:43:15;5.00;;;3.43;;
20230;SDS011;10274;49.022;9.338;2023-04-25T12:45:42;3.10;;;2.80;;
20230;SDS011;10274;49.022;9.338;2023-04-25T12:48:08;3.47;;;3.17;;
20230;SDS011;10274;49.022;9.338;2023-04-25T12:50:35;3.77;;;3.37;;
20230;SDS011;10274;49.022;9.338;2023-04-25T12:53:02;4.13;;;3.10;;
20230;SDS011;10274;49.022;9.338;2023-04-25T12:55:30;6.83;;;3.70;;
20230;SDS011;10274;49.022;9.338;2023-04-25T12:57:57;5.50;;;4.20;;
20230;SDS011;10274;49.022;9.338;2023-04-25T13:00:24;5.13;;;3.77;;
20230;SDS011;10274;49.022;9.338;2023-04-25T13:02:51;7.37;;;4.23;;
20230;SDS011;10274;49.022;9.338;2023-04-25T13:05:18;6.40;;;4.50;;
20230;SDS011;10274;49.022;9.338;2023-04-25T13:07:45;5.23;;;4.20;;
20230;SDS011;10274;49.022;9.338;2023-04-25T13:10:11;5.10;;;3.97;;
20230;SDS011;10274;49.022;9.338;2023-04-25T13:12:39;4.73;;;3.80;;
20230;SDS011;10274;49.022;9.338;2023-04-25T13:15:06;7.80;;;5.00;;
20230;SDS011;10274;49.022;9.338;2023-04-25T13:17:36;6.13;;;4.40;;
20230;SDS011;10274;49.022;9.338;2023-04-25T13:20:03;7.27;;;4.33;;
20230;SDS011;10274;49.022;9.338;2023-04-25T13:22:33;4.93;;;4.10;;
20230;SDS011;10274;49.022;9.338;2023-04-25T13:25:01;6.00;;;3.97;;
20230;SDS011;10274;49.022;9.338;2023-04-25T13:27:29;4.80;;;4.27;;
20230;SDS011;10274;49.022;9.338;2023-04-25T13:29:58;5.73;;;3.53;;
20230;SDS011;10274;49.022;9.338;2023-04-25T13:32:26;4.77;;;3.80;;
20230;SDS011;10274;49.022;9.338;2023-04-25T13:34:53;5.57;;;4.50;;
20230;SDS011;10274;49.022;9.338;2023-04-25T13:37:20;8.53;;;5.40;;
20230;SDS011;10274;49.022;9.338;2023-04-25T13:39:49;6.77;;;4.60;;
20230;SDS011;10274;49.022;9.338;2023-04-25T13:42:15;6.60;;;4.80;;
20230;SDS011;10274;49.022;9.338;2023-04-25T13:44:42;7.93;;;5.40;;
20230;SDS011;10274;49.022;9.338;2023-04-25T13:47:10;6.60;;;4.87;;
20230;SDS011;10274;49.022;9.338;2023-04-25T13:49:37;6.43;;;4.27;;
20230;SDS011;10274;49.022;9.338;2023-04-25T13:52:03;7.37;;;4.90;;
20230;SDS011;10274;49.022;9.338;2023-04-25T13:54:30;4.60;;;3.87;;
20230;SDS011;10274;49.022;9.338;2023-04-25T13:56:57;4.40;;;3.40;;
20230;SDS011;10274;49.022;9.338;2023-04-25T13:59:24;5.07;;;2.80;;
20230;SDS011;10274;49.022;9.338;2023-04-25T14:01:51;3.77;;;2.63;;
20230;SDS011;10274;49.022;9.338;2023-04-25T14:04:19;4.23;;;3.20;;
20230;SDS011;10274;49.022;9.338;2023-04-25T14:06:45;2.73;;;2.30;;
20230;SDS011;10274;49.022;9.338;2023-04-25T14:09:12;3.47;;;2.10;;
20230;SDS011;10274;49.022;9.338;2023-04-25T14:11:40;6.03;;;3.20;;
20230;SDS011;10274;49.022;9.338;2023-04-25T14:14:07;3.80;;;2.50;;
20230;SDS011;10274;49.022;9.338;2023-04-25T14:16:34;3.00;;;2.33;;
20230;SDS011;10274;49.022;9.338;2023-04-25T14:19:00;2.20;;;2.00;;
20230;SDS011;10274;49.022;9.338;2023-04-25T14:21:29;2.80;;;2.47;;
20230;SDS011;10274;49.022;9.338;2023-04-25T14:23:57;4.13;;;2.60;;
20230;SDS011;10274;49.022;9.338;2023-04-25T14:26:24;3.30;;;2.57;;
20230;SDS011;10274;49.022;9.338;2023-04-25T14:28:51;5.47;;;2.83;;
20230;SDS011;10274;49.022;9.338;2023-04-25T14:31:18;2.77;;;2.40;;
20230;SDS011;10274;49.022;9.338;2023-04-25T14:33:44;3.37;;;2.60;;
20230;SDS011;10274;49.022;9.338;2023-04-25T14:36:11;3.70;;;2.70;;
20230;SDS011;10274;49.022;9.338;2023-04-25T14:38:40;3.73;;;2.13;;
20230;SDS011;10274;49.022;9.338;2023-04-25T14:41:07;3.10;;;2.47;;
20230;SDS011;10274;49.022;9.338;2023-04-25T14:43:33;3.73;;;2.43;;
20230;SDS011;10274;49.022;9.338;2023-04-25T14:46:01;2.00;;;1.80;;
20230;SDS011;10274;49.022;9.338;2023-04-25T14:48:28;6.00;;;2.53;;
20230;SDS011;10274;49.022;9.338;2023-04-25T14:50:55;2.93;;;2.30;;